Time;durP1;ratioP1;P1;durP2;ratioP2;P2;SDS_P1;SDS_P2;PMS_P1;PMS_P2;Temp;Humidity;BMP_temperature;BMP_pressure;BME280_temperature;BME280_humidity;BME280_pressure;Samples;Min_cycle;Max_cycle;Signal;HPM_P1;HPM_P2
2023/12/07 00:01:34;;;;;;;0.30;0.30;;;;;;;10.66;54.01;102006.94;5062322;28;20037;-63
2023/12/07 00:04:00;;;;;;;0.30;0.30;;;;;;;10.63;53.89;102010.84;5057889;28;20350;-64
2023/12/07 00:06:25;;;;;;;0.30;0.30;;;;;;;10.27;55.54;102015.56;5070379;28;20509;-62
2023/12/07 00:08:50;;;;;;;0.40;0.40;;;;;;;10.29;55.45;102008.13;5070860;28;20052;-62
2023/12/07 00:11:16;;;;;;;0.50;0.50;;;;;;;10.42;56.00;102010.91;5070741;28;20135;-62
2023/12/07 00:13:41;;;;;;;0.30;0.30;;;;;;;10.07;57.57;102019.06;5070577;28;20131;-62
2023/12/07 00:16:07;;;;;;;0.30;0.30;;;;;;;10.24;57.04;102004.38;5070604;28;20121;-62
2023/12/07 00:18:32;;;;;;;0.32;0.32;;;;;;;10.24;56.82;102010.56;5070612;28;20036;-62
2023/12/07 00:20:57;;;;;;;0.40;0.40;;;;;;;10.02;57.64;102013.44;5069351;28;20105;-61
2023/12/07 00:23:23;;;;;;;0.40;0.40;;;;;;;10.46;55.80;102009.50;5070032;28;20348;-62
2023/12/07 00:25:49;;;;;;;0.30;0.30;;;;;;;10.09;57.21;102011.63;5070353;28;20468;-62
2023/12/07 00:28:14;;;;;;;0.38;0.38;;;;;;;10.48;56.14;102012.81;5070454;28;20148;-63
2023/12/07 00:30:39;;;;;;;0.50;0.50;;;;;;;10.49;56.42;102013.66;5069018;28;20031;-61
2023/12/07 00:33:05;;;;;;;0.30;0.30;;;;;;;10.67;55.48;102008.63;5070667;28;20028;-61
2023/12/07 00:35:30;;;;;;;0.30;0.30;;;;;;;10.77;55.48;102009.06;5070237;28;20166;-62
2023/12/07 00:37:56;;;;;;;0.30;0.30;;;;;;;10.23;57.32;102008.06;5069876;28;20123;-63
2023/12/07 00:40:22;;;;;;;0.30;0.30;;;;;;;9.70;60.09;102004.88;5068242;28;20127;-62
2023/12/07 00:42:47;;;;;;;0.47;0.47;;;;;;;10.60;55.86;102008.56;5069898;28;20079;-61
2023/12/07 00:45:13;;;;;;;0.30;0.30;;;;;;;10.91;55.40;102010.81;5070292;28;20503;-62
2023/12/07 00:47:39;;;;;;;0.40;0.40;;;;;;;11.07;53.66;102010.47;5070681;28;20024;-63
2023/12/07 00:50:05;;;;;;;0.40;0.40;;;;;;;11.25;53.61;102008.09;5070196;28;20040;-62
2023/12/07 00:52:30;;;;;;;0.30;0.30;;;;;;;11.00;53.84;102014.19;5070073;28;20052;-62
2023/12/07 00:54:56;;;;;;;0.40;0.40;;;;;;;11.05;54.35;102009.84;5069838;28;20028;-62
2023/12/07 00:57:21;;;;;;;0.40;0.40;;;;;;;11.00;54.16;102014.19;5070086;28;20024;-63
2023/12/07 00:59:47;;;;;;;0.40;0.40;;;;;;;10.93;54.87;102007.94;5070741;28;20381;-61
2023/12/07 01:02:12;;;;;;;0.38;0.38;;;;;;;11.04;54.20;102010.91;5055996;28;20135;-61
2023/12/07 01:04:38;;;;;;;0.40;0.40;;;;;;;10.88;54.61;102013.06;5063455;28;20064;-61
2023/12/07 01:07:03;;;;;;;0.20;0.20;;;;;;;11.27;53.23;102018.63;5072486;28;20500;-61
2023/12/07 01:09:28;;;;;;;0.45;0.45;;;;;;;10.93;53.71;102027.56;5073877;28;20056;-63
2023/12/07 01:11:54;;;;;;;0.40;0.40;;;;;;;10.81;55.04;102034.53;5074722;28;20040;-61
2023/12/07 01:14:19;;;;;;;0.47;0.47;;;;;;;10.96;54.36;102024.50;5073829;28;20035;-62
2023/12/07 01:16:45;;;;;;;0.30;0.30;;;;;;;11.18;53.63;102025.22;5073885;28;20044;-61
2023/12/07 01:19:14;;;;;;;0.38;0.38;;;;;;;10.58;55.57;102025.91;5073819;28;20043;-63
2023/12/07 01:21:39;;;;;;;0.38;0.38;;;;;;;11.21;54.24;102025.66;5074028;28;20556;-62
2023/12/07 01:24:05;;;;;;;0.32;0.32;;;;;;;11.62;53.25;102030.13;5073436;28;20028;-63
2023/12/07 01:26:30;;;;;;;0.35;0.35;;;;;;;11.26;53.81;102019.69;5074243;28;20056;-61
2023/12/07 01:28:56;;;;;;;0.47;0.47;;;;;;;11.62;52.28;102028.28;5074088;28;20060;-62
2023/12/07 01:31:21;;;;;;;0.40;0.40;;;;;;;11.41;52.80;102018.50;5071579;28;20048;-63
2023/12/07 01:33:47;;;;;;;0.30;0.30;;;;;;;11.64;51.93;102031.59;5052421;28;20065;-62
2023/12/07 01:36:12;;;;;;;0.30;0.30;;;;;;;11.47;52.14;102035.69;5053534;28;20067;-62
2023/12/07 01:38:37;;;;;;;0.40;0.40;;;;;;;11.45;51.82;102018.91;5053822;28;20025;-63
2023/12/07 01:41:03;;;;;;;0.30;0.30;;;;;;;11.36;52.19;102026.34;5056549;28;20508;-62
2023/12/07 01:43:28;;;;;;;0.40;0.40;;;;;;;11.27;52.21;102030.25;5073228;28;20062;-65
2023/12/07 01:45:57;;;;;;;0.20;0.20;;;;;;;11.08;52.59;102025.59;5073061;28;20082;-62
2023/12/07 01:48:24;;;;;;;0.38;0.38;;;;;;;11.12;52.19;102026.88;5073301;28;20476;-63
2023/12/07 01:50:49;;;;;;;0.30;0.30;;;;;;;11.07;52.33;102029.31;5073468;28;20040;-62
2023/12/07 01:53:15;;;;;;;0.40;0.40;;;;;;;10.97;52.23;102031.53;5073000;28;20120;-63
2023/12/07 01:55:42;;;;;;;0.40;0.40;;;;;;;10.87;52.46;102031.06;5072978;28;20044;-62
2023/12/07 01:58:07;;;;;;;0.30;0.30;;;;;;;10.89;52.32;102042.44;5071058;28;20059;-63
2023/12/07 02:00:34;;;;;;;0.30;0.30;;;;;;;10.74;51.99;102030.97;5053017;28;20037;-62
2023/12/07 02:03:04;;;;;;;0.50;0.50;;;;;;;10.82;52.17;102030.84;5071750;28;20033;-61
2023/12/07 02:05:31;;;;;;;0.38;0.38;;;;;;;10.57;52.12;102029.63;5072747;28;20052;-64
2023/12/07 02:07:56;;;;;;;0.40;0.40;;;;;;;10.60;52.47;102032.75;5072842;28;20055;-63
2023/12/07 02:10:21;;;;;;;0.45;0.45;;;;;;;10.55;52.13;102034.38;5072764;28;20472;-62
2023/12/07 02:12:48;;;;;;;0.30;0.30;;;;;;;10.36;52.39;102026.97;5072803;28;20163;-61
2023/12/07 02:15:14;;;;;;;0.50;0.50;;;;;;;9.95;53.83;102031.31;5072790;28;20077;-62
2023/12/07 02:17:48;;;;;;;0.40;0.40;;;;;;;10.23;53.37;102035.78;5072442;28;20044;-63
2023/12/07 02:20:36;;;;;;;0.68;0.68;;;;;;;10.49;52.38;102033.31;5072621;28;20036;-62
2023/12/07 02:23:04;;;;;;;0.32;0.32;;;;;;;10.21;53.31;102031.63;5029646;28;20053;-62
2023/12/07 02:25:37;;;;;;;0.40;0.40;;;;;;;10.26;52.67;102037.25;5029614;28;20087;-62
2023/12/07 02:28:02;;;;;;;0.50;0.50;;;;;;;10.17;52.46;102038.41;5029762;28;20045;-62
2023/12/07 02:30:27;;;;;;;0.35;0.35;;;;;;;10.15;53.00;102035.06;5013232;28;20037;-63
2023/12/07 02:32:53;;;;;;;0.43;0.43;;;;;;;10.02;52.30;102032.25;5030201;28;20030;-62
2023/12/07 02:35:18;;;;;;;0.40;0.40;;;;;;;9.92;52.93;102032.56;5029929;28;20136;-62
2023/12/07 02:37:51;;;;;;;0.38;0.38;;;;;;;9.99;52.67;102033.44;5029663;28;20072;-63
2023/12/07 02:40:26;;;;;;;0.40;0.40;;;;;;;9.95;52.85;102036.69;5029496;28;20061;-62
2023/12/07 02:42:53;;;;;;;0.40;0.40;;;;;;;9.78;52.64;102030.75;5029223;28;20057;-61
2023/12/07 02:45:19;;;;;;;0.40;0.40;;;;;;;9.70;52.50;102028.19;5029114;28;20033;-62
2023/12/07 02:47:45;;;;;;;0.40;0.40;;;;;;;9.64;52.55;102021.75;5029707;28;20053;-62
2023/12/07 02:50:11;;;;;;;0.40;0.40;;;;;;;9.65;52.16;102027.94;5029327;28;20179;-62
2023/12/07 02:52:36;;;;;;;0.38;0.38;;;;;;;9.63;52.55;102021.94;5029184;28;20071;-63
2023/12/07 02:55:02;;;;;;;0.30;0.30;;;;;;;9.51;52.49;102028.81;5020916;28;20029;-62
2023/12/07 02:57:29;;;;;;;0.40;0.40;;;;;;;9.42;52.86;102025.41;5029158;28;20049;-61
2023/12/07 02:59:55;;;;;;;0.40;0.40;;;;;;;9.43;52.55;102024.41;5035382;28;20830;-61
2023/12/07 03:02:20;;;;;;;0.30;0.30;;;;;;;9.52;53.40;102023.25;5071528;28;20044;-62
2023/12/07 03:04:45;;;;;;;0.50;0.50;;;;;;;9.54;52.77;102020.38;5071769;28;20123;-61
2023/12/07 03:07:11;;;;;;;0.40;0.40;;;;;;;9.41;52.71;102015.72;5071685;28;20041;-63
2023/12/07 03:09:36;;;;;;;0.30;0.30;;;;;;;9.51;52.72;102016.22;5071719;28;20028;-62
2023/12/07 03:12:01;;;;;;;0.50;0.50;;;;;;;9.41;52.56;102018.41;5072235;28;20032;-61
2023/12/07 03:14:27;;;;;;;0.60;0.60;;;;;;;9.43;52.82;102026.25;5071617;28;20063;-62
2023/12/07 03:16:52;;;;;;;0.30;0.30;;;;;;;9.35;53.25;102021.00;5071405;28;20040;-61
2023/12/07 03:19:18;;;;;;;0.40;0.40;;;;;;;9.46;53.27;102024.00;5071601;28;20044;-61
2023/12/07 03:21:43;;;;;;;0.40;0.40;;;;;;;9.44;53.07;102026.06;5070222;28;20059;-62
2023/12/07 03:24:09;;;;;;;0.40;0.40;;;;;;;9.48;52.92;102032.69;5071291;28;20082;-62
2023/12/07 03:26:34;;;;;;;0.40;0.40;;;;;;;9.33;53.01;102029.22;5071547;28;20024;-61
2023/12/07 03:29:00;;;;;;;0.40;0.40;;;;;;;9.49;53.13;102030.88;5070438;28;20040;-61
2023/12/07 03:31:26;;;;;;;0.30;0.30;;;;;;;9.43;53.04;102029.78;5071152;28;20060;-63
2023/12/07 03:33:51;;;;;;;0.40;0.40;;;;;;;9.44;52.55;102027.91;5070072;28;20044;-61
2023/12/07 03:36:16;;;;;;;0.40;0.40;;;;;;;9.45;52.77;102032.25;5071082;28;20373;-62
2023/12/07 03:38:42;;;;;;;0.50;0.50;;;;;;;9.37;52.44;102038.56;5071626;28;20103;-62
2023/12/07 03:41:08;;;;;;;0.40;0.40;;;;;;;9.36;52.53;102036.06;5070401;28;20064;-62
2023/12/07 03:43:33;;;;;;;0.47;0.47;;;;;;;9.31;52.92;102042.00;5070834;28;20496;-61
2023/12/07 03:45:58;;;;;;;0.45;0.45;;;;;;;9.30;52.75;102048.38;5070851;28;20032;-62
2023/12/07 03:48:24;;;;;;;0.50;0.50;;;;;;;9.42;53.29;102046.03;5070673;28;20076;-61
2023/12/07 03:50:49;;;;;;;0.50;0.50;;;;;;;9.43;52.71;102051.22;5071096;28;20082;-62
2023/12/07 03:53:14;;;;;;;0.40;0.40;;;;;;;9.36;52.53;102047.63;5070684;28;20063;-63
2023/12/07 03:55:40;;;;;;;0.30;0.30;;;;;;;9.29;52.58;102054.75;5050911;28;20060;-62
2023/12/07 03:58:05;;;;;;;0.43;0.43;;;;;;;9.26;52.81;102049.75;5050746;28;20036;-62
2023/12/07 04:00:32;;;;;;;0.40;0.40;;;;;;;9.26;52.80;102049.75;5050771;28;20033;-61
2023/12/07 04:02:58;;;;;;;0.40;0.40;;;;;;;9.25;53.14;102045.44;5064693;28;20056;-62
2023/12/07 04:05:23;;;;;;;0.40;0.40;;;;;;;9.28;52.50;102052.25;5070386;28;20079;-62
2023/12/07 04:07:49;;;;;;;0.50;0.50;;;;;;;9.30;52.71;102056.41;5070578;28;20442;-60
2023/12/07 04:10:14;;;;;;;0.43;0.43;;;;;;;9.31;54.65;102050.03;5070479;28;20048;-61
2023/12/07 04:12:40;;;;;;;0.40;0.40;;;;;;;9.38;53.18;102048.25;5070532;28;20036;-61
2023/12/07 04:15:06;;;;;;;0.40;0.40;;;;;;;9.20;52.80;102063.09;5070810;28;20056;-62
2023/12/07 04:17:31;;;;;;;0.40;0.40;;;;;;;9.20;52.88;102057.75;5070956;28;20044;-61
2023/12/07 04:19:56;;;;;;;0.50;0.50;;;;;;;9.35;52.94;102051.34;5070282;28;20119;-62
2023/12/07 04:22:22;;;;;;;0.50;0.50;;;;;;;9.26;53.14;102055.13;5070402;28;20043;-61
2023/12/07 04:24:47;;;;;;;0.32;0.32;;;;;;;9.22;52.92;102056.50;5063013;28;20120;-63
2023/12/07 04:27:12;;;;;;;0.30;0.30;;;;;;;9.23;52.43;102047.47;5050225;28;20040;-62
2023/12/07 04:29:38;;;;;;;0.22;0.22;;;;;;;9.21;52.79;102060.22;5050903;28;20035;-62
2023/12/07 04:32:03;;;;;;;0.30;0.30;;;;;;;9.19;52.99;102062.25;5051810;28;20095;-62
2023/12/07 04:34:29;;;;;;;0.40;0.40;;;;;;;9.20;52.87;102050.50;5070034;28;20041;-61
2023/12/07 04:36:54;;;;;;;0.40;0.40;;;;;;;9.15;52.87;102054.78;5069507;28;20041;-62
2023/12/07 04:39:19;;;;;;;0.50;0.50;;;;;;;9.22;53.10;102056.50;5069259;28;20671;-61
2023/12/07 04:41:45;;;;;;;0.40;0.40;;;;;;;9.17;52.97;102039.31;5069495;28;20055;-62
2023/12/07 04:44:10;;;;;;;0.50;0.50;;;;;;;9.24;52.97;102046.44;5068899;28;20419;-62
2023/12/07 04:46:36;;;;;;;0.47;0.47;;;;;;;9.14;52.99;102045.06;5068865;28;20067;-61
2023/12/07 04:49:01;;;;;;;0.30;0.30;;;;;;;9.20;53.23;102044.34;5069001;28;20072;-61
2023/12/07 04:51:27;;;;;;;0.40;0.40;;;;;;;9.20;53.34;102041.66;5068511;28;20032;-63
2023/12/07 04:53:52;;;;;;;0.50;0.50;;;;;;;9.06;53.79;102051.34;5069390;28;20028;-61
2023/12/07 04:56:17;;;;;;;0.50;0.50;;;;;;;9.17;53.93;102044.69;5068725;28;20036;-62
2023/12/07 04:58:43;;;;;;;0.40;0.40;;;;;;;9.20;53.02;102042.47;5067372;28;20052;-61
2023/12/07 05:01:08;;;;;;;0.50;0.50;;;;;;;9.02;54.12;102044.69;5066359;28;20100;-61
2023/12/07 05:03:33;;;;;;;0.50;0.50;;;;;;;9.11;53.52;102035.53;5068243;28;20459;-62
2023/12/07 05:05:59;;;;;;;0.47;0.47;;;;;;;9.28;52.94;102041.50;5067310;28;20115;-62
2023/12/07 05:08:25;;;;;;;0.45;0.45;;;;;;;9.19;53.57;102045.34;5068467;28;20135;-62
2023/12/07 05:10:51;;;;;;;0.40;0.40;;;;;;;9.16;53.41;102053.75;5068380;28;20555;-61
2023/12/07 05:13:17;;;;;;;0.30;0.30;;;;;;;9.17;53.67;102044.69;5068044;28;20074;-62
2023/12/07 05:15:42;;;;;;;0.30;0.30;;;;;;;9.19;53.62;102048.84;5068400;28;20408;-62
2023/12/07 05:18:07;;;;;;;0.40;0.40;;;;;;;9.24;53.54;102049.13;5067998;28;20050;-62
2023/12/07 05:20:33;;;;;;;0.40;0.40;;;;;;;9.20;53.29;102052.38;5065772;28;20155;-62
2023/12/07 05:22:59;;;;;;;0.30;0.30;;;;;;;9.25;53.65;102041.91;5060824;28;20040;-62
2023/12/07 05:25:27;;;;;;;0.50;0.50;;;;;;;9.19;53.64;102046.16;5068013;28;20385;-62
2023/12/07 05:27:52;;;;;;;0.32;0.32;;;;;;;9.24;53.27;102045.59;5067539;28;20052;-62
2023/12/07 05:30:17;;;;;;;0.35;0.35;;;;;;;9.25;53.56;102041.91;5067861;28;20036;-62
2023/12/07 05:32:43;;;;;;;0.40;0.40;;;;;;;9.27;53.74;102043.38;5066635;28;20102;-62
2023/12/07 05:35:08;;;;;;;0.30;0.30;;;;;;;9.32;54.01;102049.00;5067981;28;20072;-61
2023/12/07 05:37:33;;;;;;;0.30;0.30;;;;;;;9.25;54.27;102047.28;5068059;28;20120;-61
2023/12/07 05:39:59;;;;;;;0.45;0.45;;;;;;;9.44;53.86;102035.94;5067989;28;20116;-61
2023/12/07 05:42:24;;;;;;;0.40;0.40;;;;;;;9.19;54.62;102038.13;5067582;28;20536;-62
2023/12/07 05:44:49;;;;;;;0.30;0.30;;;;;;;9.20;54.54;102045.13;5067693;28;20636;-62
2023/12/07 05:47:15;;;;;;;0.50;0.50;;;;;;;9.35;53.46;102039.75;5067655;28;20131;-62
2023/12/07 05:49:40;;;;;;;0.68;0.68;;;;;;;9.38;53.96;102032.16;5067761;28;20043;-61
2023/12/07 05:52:05;;;;;;;0.40;0.40;;;;;;;9.43;53.13;102035.13;5069996;28;20128;-62
2023/12/07 05:54:31;;;;;;;0.40;0.40;;;;;;;9.30;53.68;102026.06;5069730;28;20095;-62
2023/12/07 05:56:56;;;;;;;0.40;0.40;;;;;;;9.36;53.13;102025.31;5071977;28;20097;-61
2023/12/07 05:59:22;;;;;;;0.60;0.60;;;;;;;9.26;54.12;102025.63;5071570;28;20040;-62
2023/12/07 06:01:47;;;;;;;0.40;0.40;;;;;;;9.26;54.22;102027.47;5071285;28;20119;-62
2023/12/07 06:04:13;;;;;;;0.43;0.43;;;;;;;9.31;53.84;102028.59;5071758;28;20040;-62
2023/12/07 06:06:38;;;;;;;0.40;0.40;;;;;;;9.29;54.59;102040.50;5071402;28;20048;-62
2023/12/07 06:09:05;;;;;;;0.32;0.32;;;;;;;9.15;54.39;102031.47;5072366;28;20089;-62
2023/12/07 06:11:31;;;;;;;0.40;0.40;;;;;;;9.16;54.61;102040.34;5071170;28;20488;-62
2023/12/07 06:13:58;;;;;;;0.40;0.40;;;;;;;9.35;53.72;102035.25;5071595;28;20056;-62
2023/12/07 06:16:24;;;;;;;0.40;0.40;;;;;;;9.26;54.45;102033.66;5071537;28;20045;-62
2023/12/07 06:18:49;;;;;;;0.60;0.60;;;;;;;9.38;53.77;102034.00;5052844;28;20041;-62
2023/12/07 06:21:15;;;;;;;0.55;0.55;;;;;;;9.36;54.15;102039.56;5069652;28;20033;-61
2023/12/07 06:23:41;;;;;;;0.40;0.40;;;;;;;9.40;53.94;102040.84;5071770;28;20472;-63
2023/12/07 06:26:07;;;;;;;0.40;0.40;;;;;;;9.17;54.80;102040.16;5071057;28;20037;-61
2023/12/07 06:28:32;;;;;;;0.38;0.38;;;;;;;8.81;56.33;102052.63;5071374;28;20048;-63
2023/12/07 06:30:57;;;;;;;0.50;0.50;;;;;;;8.73;56.59;102042.84;5071669;28;20036;-61
2023/12/07 06:33:23;;;;;;;0.30;0.30;;;;;;;8.73;56.85;102056.25;5071064;28;20090;-64
2023/12/07 06:35:48;;;;;;;0.40;0.40;;;;;;;8.87;55.91;102049.22;5071697;28;20115;-62
2023/12/07 06:38:13;;;;;;;0.40;0.40;;;;;;;8.88;56.42;102051.72;5071070;28;20411;-62
2023/12/07 06:40:39;;;;;;;0.30;0.30;;;;;;;8.89;56.40;102055.22;5058284;28;20037;-61
2023/12/07 06:43:04;;;;;;;0.40;0.40;;;;;;;8.83;56.45;102055.97;5059163;28;20048;-61
2023/12/07 06:45:29;;;;;;;0.47;0.47;;;;;;;8.79;56.48;102058.19;5069666;28;20044;-62
2023/12/07 06:47:55;;;;;;;0.40;0.40;;;;;;;8.66;56.90;102060.69;5071369;28;20476;-62
2023/12/07 06:50:21;;;;;;;0.60;0.60;;;;;;;8.82;56.77;102046.28;5071033;28;20047;-61
2023/12/07 06:52:46;;;;;;;0.40;0.40;;;;;;;8.92;56.58;102049.53;5070878;28;20186;-62
2023/12/07 06:55:11;;;;;;;0.50;0.50;;;;;;;8.82;56.30;102057.00;5070716;28;20041;-63
2023/12/07 06:57:37;;;;;;;0.43;0.43;;;;;;;8.85;56.60;102053.94;5070445;28;20060;-62
2023/12/07 07:00:05;;;;;;;0.50;0.50;;;;;;;8.88;56.22;102049.03;5071292;28;20028;-62
2023/12/07 07:02:31;;;;;;;0.50;0.50;;;;;;;8.75;56.47;102059.56;5070199;28;20037;-61
2023/12/07 07:04:56;;;;;;;0.40;0.40;;;;;;;8.42;56.77;102058.22;5068616;28;20528;-62
2023/12/07 07:07:22;;;;;;;0.30;0.30;;;;;;;8.68;56.28;102058.66;5066637;28;20044;-62
2023/12/07 07:09:47;;;;;;;0.50;0.50;;;;;;;8.61;56.59;102062.22;5068784;28;20508;-62
2023/12/07 07:12:13;;;;;;;0.40;0.40;;;;;;;8.56;56.33;102059.28;5069815;28;20518;-62
2023/12/07 07:14:38;;;;;;;0.30;0.30;;;;;;;8.48;56.70;102053.97;5070739;28;20518;-62
2023/12/07 07:17:04;;;;;;;0.40;0.40;;;;;;;8.70;56.26;102051.25;5069883;28;20029;-62
2023/12/07 07:19:30;;;;;;;0.40;0.40;;;;;;;8.59;56.48;102062.41;5069939;28;20047;-62
2023/12/07 07:21:55;;;;;;;0.40;0.40;;;;;;;8.55;56.87;102042.34;5063210;28;20056;-62
2023/12/07 07:24:20;;;;;;;0.40;0.40;;;;;;;8.47;56.14;102055.00;5063121;28;20051;-62
2023/12/07 07:26:46;;;;;;;0.50;0.50;;;;;;;8.67;55.43;102066.84;5058884;28;20112;-62
2023/12/07 07:29:11;;;;;;;0.47;0.47;;;;;;;8.67;56.52;102069.53;5065722;28;20147;-62
2023/12/07 07:31:36;;;;;;;0.40;0.40;;;;;;;8.57;56.17;102066.31;5057371;28;20040;-62
2023/12/07 07:34:02;;;;;;;0.30;0.30;;;;;;;8.32;57.13;102072.88;5054503;28;20492;-62
2023/12/07 07:36:28;;;;;;;0.50;0.50;;;;;;;8.37;56.95;102075.84;5054000;28;20404;-62
2023/12/07 07:38:54;;;;;;;0.43;0.43;;;;;;;8.50;56.56;102068.88;5060389;28;20111;-63
2023/12/07 07:41:20;;;;;;;0.40;0.40;;;;;;;8.65;55.80;102072.41;5047402;28;20131;-62
2023/12/07 07:43:45;;;;;;;0.30;0.30;;;;;;;8.34;57.13;102071.69;5057075;28;20086;-61
2023/12/07 07:46:10;;;;;;;0.40;0.40;;;;;;;8.70;56.78;102079.91;5056023;28;20051;-62
2023/12/07 07:48:37;;;;;;;0.40;0.40;;;;;;;8.74;56.36;102070.47;5067230;28;20032;-62
2023/12/07 07:51:03;;;;;;;0.40;0.40;;;;;;;8.51;57.64;102081.22;5067044;28;20033;-62
2023/12/07 07:53:28;;;;;;;0.43;0.43;;;;;;;8.26;57.87;102086.97;5067194;28;20430;-62
2023/12/07 07:55:54;;;;;;;0.40;0.40;;;;;;;8.38;57.05;102088.22;5067154;28;20028;-62
2023/12/07 07:58:19;;;;;;;0.40;0.40;;;;;;;7.93;59.05;102081.84;5067461;28;20036;-61
2023/12/07 08:00:46;;;;;;;0.52;0.52;;;;;;;8.15;58.97;102074.00;5064050;28;20102;-63
2023/12/07 08:03:12;;;;;;;0.52;0.52;;;;;;;7.86;60.01;102075.53;5064390;28;20518;-63
2023/12/07 08:05:37;;;;;;;0.40;0.40;;;;;;;7.19;63.83;102080.72;5064997;28;20040;-61
2023/12/07 08:08:02;;;;;;;0.50;0.50;;;;;;;7.37;62.17;102079.47;5066795;28;20146;-62
2023/12/07 08:10:28;;;;;;;0.30;0.30;;;;;;;7.38;60.77;102081.16;5066055;28;20082;-62
2023/12/07 08:12:53;;;;;;;0.40;0.40;;;;;;;7.41;61.47;102079.97;5049584;28;20029;-62
2023/12/07 08:15:20;;;;;;;0.30;0.30;;;;;;;7.97;59.22;102079.66;5062436;28;20028;-63
2023/12/07 08:17:45;;;;;;;0.50;0.50;;;;;;;7.98;59.54;102082.13;5067311;28;20377;-62
2023/12/07 08:20:11;;;;;;;0.32;0.32;;;;;;;8.08;58.59;102086.44;5065010;28;20047;-61
2023/12/07 08:22:37;;;;;;;0.40;0.40;;;;;;;7.41;61.88;102086.13;5066894;28;20037;-62
2023/12/07 08:25:05;;;;;;;0.43;0.43;;;;;;;7.39;61.50;102085.47;5067365;28;20036;-62
2023/12/07 08:27:32;;;;;;;0.47;0.47;;;;;;;7.95;59.77;102084.34;5067347;28;20040;-62
2023/12/07 08:29:57;;;;;;;0.30;0.30;;;;;;;7.75;60.27;102092.00;5067532;28;20037;-62
2023/12/07 08:32:25;;;;;;;0.40;0.40;;;;;;;7.89;60.94;102088.56;5066212;28;20037;-62
2023/12/07 08:34:51;;;;;;;0.40;0.40;;;;;;;8.39;57.90;102084.53;5066665;28;20143;-62
2023/12/07 08:37:16;;;;;;;0.45;0.45;;;;;;;7.93;59.49;102081.00;5054261;28;20065;-62
2023/12/07 08:39:41;;;;;;;0.57;0.57;;;;;;;8.59;58.19;102086.53;5057206;28;20120;-63
2023/12/07 08:42:08;;;;;;;0.47;0.47;;;;;;;8.59;58.29;102091.03;5062730;28;20076;-63
2023/12/07 08:44:33;;;;;;;0.40;0.40;;;;;;;8.65;58.48;102090.31;5046780;28;20043;-62
2023/12/07 08:46:58;;;;;;;0.43;0.43;;;;;;;8.16;60.09;102089.03;5046977;28;20041;-62
2023/12/07 08:49:24;;;;;;;0.38;0.38;;;;;;;8.43;59.14;102086.66;5064746;28;20083;-63
2023/12/07 08:51:49;;;;;;;0.38;0.38;;;;;;;7.93;61.64;102084.53;5066394;28;20071;-63
2023/12/07 08:54:14;;;;;;;0.50;0.50;;;;;;;8.60;59.24;102079.31;5066441;28;20044;-61
2023/12/07 08:56:40;;;;;;;0.30;0.30;;;;;;;8.75;58.32;102077.50;5053817;28;20090;-63
2023/12/07 08:59:05;;;;;;;0.40;0.40;;;;;;;8.86;57.64;102075.19;5047195;28;20086;-62
2023/12/07 09:01:32;;;;;;;0.47;0.47;;;;;;;8.83;59.35;102072.03;5063578;28;20139;-62
2023/12/07 09:03:58;;;;;;;0.40;0.40;;;;;;;9.00;58.49;102070.03;5066586;28;20046;-63
2023/12/07 09:06:24;;;;;;;0.70;0.70;;;;;;;8.81;58.67;102080.28;5067301;28;20048;-61
2023/12/07 09:08:50;;;;;;;0.40;0.40;;;;;;;8.80;58.14;102080.47;5066867;28;20028;-62
2023/12/07 09:11:15;;;;;;;0.40;0.40;;;;;;;8.84;58.73;102081.78;5055423;28;20485;-61
2023/12/07 09:13:41;;;;;;;0.30;0.30;;;;;;;8.91;58.51;102079.16;5060141;28;20056;-61
2023/12/07 09:16:06;;;;;;;0.40;0.40;;;;;;;8.64;59.72;102072.59;5052123;28;20039;-60
2023/12/07 09:18:34;;;;;;;0.38;0.38;;;;;;;8.98;58.38;102077.44;5064697;28;20048;-61
2023/12/07 09:21:00;;;;;;;0.50;0.50;;;;;;;8.87;59.03;102062.63;5063988;28;20032;-61
2023/12/07 09:23:26;;;;;;;0.40;0.40;;;;;;;9.14;58.64;102066.53;5058297;28;20460;-61
2023/12/07 09:25:51;;;;;;;0.32;0.32;;;;;;;9.19;58.81;102061.44;5058881;28;20043;-61
2023/12/07 09:28:16;;;;;;;0.30;0.30;;;;;;;8.71;59.93;102069.00;5067137;28;20127;-62
2023/12/07 09:30:42;;;;;;;0.30;0.30;;;;;;;8.70;59.87;102069.19;5059329;28;20033;-62
2023/12/07 09:33:07;;;;;;;0.35;0.35;;;;;;;8.51;60.02;102062.47;5058651;28;20059;-61
2023/12/07 09:35:34;;;;;;;0.30;0.30;;;;;;;9.06;59.08;102063.94;5070803;28;20464;-61
2023/12/07 09:37:59;;;;;;;0.43;0.43;;;;;;;9.01;59.29;102059.13;5067603;28;20553;-61
2023/12/07 09:40:25;;;;;;;0.32;0.32;;;;;;;8.95;59.14;102059.03;5068271;28;20032;-61
2023/12/07 09:42:51;;;;;;;0.40;0.40;;;;;;;9.43;57.79;102056.59;5063027;28;20045;-62
2023/12/07 09:45:19;;;;;;;0.43;0.43;;;;;;;9.29;57.83;102052.09;5061975;28;20035;-62
2023/12/07 09:47:51;;;;;;;0.30;0.30;;;;;;;8.67;59.99;102067.69;5055032;28;20071;-62
2023/12/07 09:50:18;;;;;;;0.40;0.40;;;;;;;8.86;61.07;102059.09;5064848;28;20114;-62
2023/12/07 09:52:43;;;;;;;0.30;0.30;;;;;;;9.12;59.80;102055.97;5051092;28;20323;-61
2023/12/07 09:55:09;;;;;;;0.40;0.40;;;;;;;9.44;58.68;102047.50;5048053;28;20519;-62
2023/12/07 09:57:37;;;;;;;0.47;0.47;;;;;;;9.12;59.73;102045.25;5057646;28;20039;-62
2023/12/07 10:00:03;;;;;;;0.55;0.55;;;;;;;9.42;58.49;102056.75;5070128;28;20032;-63
2023/12/07 10:02:28;;;;;;;0.40;0.40;;;;;;;9.21;59.22;102054.88;5067775;28;20484;-61
2023/12/07 10:05:10;;;;;;;0.60;0.60;;;;;;;9.09;61.01;102056.34;5050314;28;20044;-62
2023/12/07 10:07:40;;;;;;;0.50;0.50;;;;;;;9.36;58.88;102055.66;5060101;28;20041;-62
2023/12/07 10:10:06;;;;;;;0.40;0.40;;;;;;;9.58;57.56;102051.19;5062256;28;20044;-62
2023/12/07 10:12:34;;;;;;;0.35;0.35;;;;;;;8.96;59.69;102050.81;5063076;28;20090;-62
2023/12/07 10:15:13;;;;;;;0.43;0.43;;;;;;;9.22;59.13;102039.63;5053723;28;20069;-62
2023/12/07 10:17:50;;;;;;;0.50;0.50;;;;;;;9.46;59.28;102028.53;5063907;28;20052;-62
2023/12/07 10:20:23;;;;;;;0.47;0.47;;;;;;;9.52;58.83;102033.16;5057410;28;20041;-62
2023/12/07 10:23:00;;;;;;;0.30;0.30;;;;;;;9.52;58.40;102034.00;5049323;28;20666;-62
2023/12/07 10:25:26;;;;;;;0.30;0.30;;;;;;;9.20;59.06;102029.03;5057271;28;20080;-62
2023/12/07 10:27:51;;;;;;;0.32;0.32;;;;;;;9.75;57.73;102028.44;5068652;28;20064;-61
2023/12/07 10:30:21;;;;;;;0.45;0.45;;;;;;;9.18;59.41;102027.59;5069451;28;20532;-60
2023/12/07 10:32:46;;;;;;;0.32;0.32;;;;;;;9.11;59.79;102032.88;5068970;28;20025;-62
2023/12/07 10:35:11;;;;;;;0.30;0.30;;;;;;;9.24;58.81;102022.28;5064154;28;20051;-61
2023/12/07 10:37:37;;;;;;;0.30;0.30;;;;;;;9.44;59.40;102028.72;5064253;28;20041;-62
2023/12/07 10:40:03;;;;;;;0.30;0.30;;;;;;;9.46;59.03;102024.00;5063422;28;20032;-62
2023/12/07 10:42:33;;;;;;;0.47;0.47;;;;;;;8.90;60.67;102027.44;5065934;28;20043;-63
2023/12/07 10:45:04;;;;;;;0.43;0.43;;;;;;;9.23;59.75;102014.44;5065234;28;20024;-61
2023/12/07 10:47:30;;;;;;;0.30;0.30;;;;;;;9.24;59.96;102014.25;5063002;28;20116;-62
2023/12/07 10:50:00;;;;;;;0.40;0.40;;;;;;;9.42;59.04;102008.47;5063226;28;20032;-62
2023/12/07 10:52:27;;;;;;;0.28;0.28;;;;;;;9.22;60.48;102010.91;5065739;28;20036;-62
2023/12/07 10:54:56;;;;;;;0.32;0.32;;;;;;;9.69;58.28;102007.72;5064074;28;20082;-61
2023/12/07 10:57:22;;;;;;;0.25;0.25;;;;;;;10.24;55.88;102004.38;5065751;28;20041;-61
2023/12/07 10:59:50;;;;;;;0.30;0.30;;;;;;;10.24;56.43;101996.31;5066449;28;20028;-62
2023/12/07 11:02:16;;;;;;;0.40;0.40;;;;;;;9.42;59.56;101985.16;5068280;28;20094;-62
2023/12/07 11:04:43;;;;;;;0.47;0.47;;;;;;;9.64;58.32;101992.22;5065988;28;20033;-62
2023/12/07 11:07:22;;;;;;;0.35;0.35;;;;;;;10.38;56.08;101992.69;5065478;28;20478;-62
2023/12/07 11:09:58;;;;;;;0.35;0.35;;;;;;;9.87;58.05;101985.84;5065938;28;20067;-63
2023/12/07 11:12:34;;;;;;;0.30;0.30;;;;;;;9.65;58.79;101985.00;5068243;28;20086;-62
2023/12/07 11:14:59;;;;;;;0.30;0.30;;;;;;;9.56;58.71;101984.28;5052248;28;20052;-62
2023/12/07 11:17:26;;;;;;;0.30;0.30;;;;;;;8.96;60.55;101981.13;5048079;28;20068;-61
2023/12/07 11:19:52;;;;;;;0.30;0.30;;;;;;;9.12;60.40;101975.53;5059405;28;20044;-61
2023/12/07 11:22:17;;;;;;;0.30;0.30;;;;;;;8.81;61.09;101970.41;5068024;28;20040;-62
2023/12/07 11:24:55;;;;;;;0.40;0.40;;;;;;;9.04;60.97;101959.53;5067960;28;20128;-61
2023/12/07 11:27:21;;;;;;;0.50;0.50;;;;;;;9.12;60.77;101964.78;5068011;28;20028;-63